Time,TemperatureF,DewpointF,PressureIn,WindDirection,WindDirectionDegrees,WindSpeedMPH,WindSpeedGustMPH,Humidity,HourlyPrecipIn,Conditions,Clouds,dailyrainin,SoftwareType,DateUTC
2013-08-07 00:14:00,64.8,64.5,29.97,SW,225,0.0,-999.0,99,-99.99,,,0.00,Acu-Link.com,2013-08-07 04:14:00,
2013-08-07 00:29:00,64.4,64.1,29.96,SW,225,0.0,-999.0,99,-99.99,,,0.00,Acu-Link.com,2013-08-07 04:29:00,
2013-08-07 00:44:00,64.2,63.9,29.97,SW,225,0.0,-999.0,99,-99.99,,,0.00,Acu-Link.com,2013-08-07 04:44:00,
2013-08-07 00:59:00,64.8,64.5,29.97,SW,225,0.0,-999.0,99,-99.99,,,0.00,Acu-Link.com,2013-08-07 04:59:00,
2013-08-07 01:15:00,65.1,64.8,29.97,SW,225,0.0,-999.0,99,-99.99,,,0.00,Acu-Link.com,2013-08-07 05:15:00,
2013-08-07 01:30:00,65.1,64.8,29.96,WSW,247,0.0,-999.0,99,-99.99,,,0.00,Acu-Link.com,2013-08-07 05:30:00,
2013-08-07 01:45:00,65.3,65.0,29.96,SW,225,0.0,-999.0,99,-99.99,,,0.00,Acu-Link.com,2013-08-07 05:45:00,
2013-08-07 02:01:00,65.5,65.2,29.96,SW,225,0.0,-999.0,99,-99.99,,,0.00,Acu-Link.com,2013-08-07 06:01:00,
2013-08-07 02:16:00,65.5,65.2,29.96,SW,225,0.0,-999.0,99,-99.99,,,0.00,Acu-Link.com,2013-08-07 06:16:00,
2013-08-07 02:31:00,65.5,65.2,29.95,SW,225,0.0,-999.0,99,-99.99,,,0.00,Acu-Link.com,2013-08-07 06:31:00,
2013-08-07 02:47:00,65.3,65.0,29.95,WSW,247,0.0,-999.0,99,-99.99,,,0.00,Acu-Link.com,2013-08-07 06:47:00,
2013-08-07 03:02:00,65.3,65.0,29.96,SSW,202,0.0,-999.0,99,-99.99,,,0.00,Acu-Link.com,2013-08-07 07:02:00,
2013-08-07 03:17:00,65.5,64.9,29.96,SW,225,0.0,-999.0,98,-99.99,,,0.00,Acu-Link.com,2013-08-07 07:17:00,
2013-08-07 03:32:00,65.5,64.9,29.96,WSW,247,0.0,-999.0,98,-99.99,,,0.00,Acu-Link.com,2013-08-07 07:32:00,
2013-08-07 03:47:00,65.3,64.4,29.95,WSW,247,0.0,-999.0,97,-99.99,,,0.00,Acu-Link.com,2013-08-07 07:47:00,
2013-08-07 04:03:00,65.1,64.2,29.96,WSW,247,0.0,-999.0,97,-99.99,,,0.00,Acu-Link.com,2013-08-07 08:03:00,
2013-08-07 04:18:00,65.3,64.4,29.96,SW,225,0.0,-999.0,97,-99.99,,,0.00,Acu-Link.com,2013-08-07 08:18:00,
2013-08-07 04:33:00,65.3,64.4,29.97,WSW,247,0.0,-999.0,97,-99.99,,,0.00,Acu-Link.com,2013-08-07 08:33:00,
2013-08-07 04:48:00,65.1,64.2,29.97,SW,225,0.0,-999.0,97,-99.99,,,0.00,Acu-Link.com,2013-08-07 08:48:00,
2013-08-07 05:03:00,65.1,64.2,29.96,SW,225,0.0,-999.0,97,-99.99,,,0.00,Acu-Link.com,2013-08-07 09:03:00,
2013-08-07 05:19:00,64.9,64.0,29.96,West,270,0.0,-999.0,97,-99.99,,,0.00,Acu-Link.com,2013-08-07 09:19:00,
2013-08-07 05:34:00,64.9,64.0,29.96,SW,225,0.0,-999.0,97,-99.99,,,0.00,Acu-Link.com,2013-08-07 09:34:00,
2013-08-07 05:49:00,64.8,64.2,29.97,SW,225,0.0,-999.0,98,-99.99,,,0.00,Acu-Link.com,2013-08-07 09:49:00,
2013-08-07 06:04:00,64.8,64.2,29.97,SW,225,0.0,-999.0,98,-99.99,,,0.00,Acu-Link.com,2013-08-07 10:04:00,
2013-08-07 06:20:00,64.8,64.2,29.97,SW,225,0.0,-999.0,98,-99.99,,,0.00,Acu-Link.com,2013-08-07 10:20:00,
2013-08-07 06:35:00,64.9,64.3,29.98,WSW,247,0.0,-999.0,98,-99.99,,,0.00,Acu-Link.com,2013-08-07 10:35:00,
2013-08-07 06:50:00,64.9,64.6,29.98,WSW,247,0.0,-999.0,99,-99.99,,,0.00,Acu-Link.com,2013-08-07 10:50:00,
2013-08-07 07:05:00,64.9,64.6,29.97,WSW,247,0.0,-999.0,99,-99.99,,,0.00,Acu-Link.com,2013-08-07 11:05:00,
2013-08-07 07:20:00,64.9,64.6,29.97,WSW,247,0.0,-999.0,99,-99.99,,,0.00,Acu-Link.com,2013-08-07 11:20:00,
2013-08-07 07:36:00,65.5,65.2,29.98,WNW,292,0.0,-999.0,99,-99.99,,,0.00,Acu-Link.com,2013-08-07 11:36:00,
2013-08-07 07:51:00,66.0,65.4,29.98,SW,225,0.0,-999.0,98,-99.99,,,0.00,Acu-Link.com,2013-08-07 11:51:00,
2013-08-07 08:06:00,66.7,65.8,29.99,WSW,247,0.0,-999.0,97,-99.99,,,0.00,Acu-Link.com,2013-08-07 12:06:00,
2013-08-07 08:22:00,66.7,65.8,29.99,SW,225,0.0,-999.0,97,-99.99,,,0.00,Acu-Link.com,2013-08-07 12:22:00,
2013-08-07 08:37:00,67.6,66.1,29.98,SW,225,0.0,-999.0,95,-99.99,,,0.00,Acu-Link.com,2013-08-07 12:37:00,
2013-08-07 08:52:00,69.4,67.3,29.98,SW,225,0.0,-999.0,93,-99.99,,,0.00,Acu-Link.com,2013-08-07 12:52:00,
2013-08-07 09:07:00,71.1,68.0,29.98,WSW,247,1.7,-999.0,90,-99.99,,,0.00,Acu-Link.com,2013-08-07 13:07:00,
2013-08-07 09:23:00,71.4,68.3,29.98,WSW,247,2.7,-999.0,90,-99.99,,,0.00,Acu-Link.com,2013-08-07 13:23:00,
2013-08-07 09:38:00,72.0,68.6,29.98,SSW,202,2.2,-999.0,89,-99.99,,,0.00,Acu-Link.com,2013-08-07 13:38:00,
2013-08-07 09:53:00,72.3,68.5,29.98,WSW,247,0.0,-999.0,88,-99.99,,,0.00,Acu-Link.com,2013-08-07 13:53:00,
2013-08-07 10:08:00,72.1,68.3,29.99,SSE,157,1.1,-999.0,88,-99.99,,,0.00,Acu-Link.com,2013-08-07 14:08:00,
2013-08-07 10:24:00,72.1,68.0,29.99,WSW,247,2.2,-999.0,87,-99.99,,,0.00,Acu-Link.com,2013-08-07 14:24:00,
2013-08-07 10:39:00,72.3,68.2,29.99,SW,225,1.7,-999.0,87,-99.99,,,0.00,Acu-Link.com,2013-08-07 14:39:00,
2013-08-07 10:54:00,71.8,68.7,29.99,SW,225,1.7,-999.0,90,-99.99,,,0.00,Acu-Link.com,2013-08-07 14:54:00,
2013-08-07 11:10:00,72.9,69.8,29.98,WSW,247,1.7,-999.0,90,-99.99,,,0.00,Acu-Link.com,2013-08-07 15:10:00,
2013-08-07 11:25:00,74.5,69.7,29.98,South,180,2.2,-999.0,85,-99.99,,,0.00,Acu-Link.com,2013-08-07 15:25:00,
2013-08-07 11:40:00,70.7,67.9,30.00,SE,135,1.7,-999.0,91,-99.99,,,0.00,Acu-Link.com,2013-08-07 15:40:00,
2013-08-07 11:55:00,71.8,68.7,29.99,SW,225,0.0,-999.0,90,-99.99,,,0.00,Acu-Link.com,2013-08-07 15:55:00,
2013-08-07 12:11:00,71.1,68.0,29.99,SW,225,1.7,-999.0,90,-99.99,,,0.00,Acu-Link.com,2013-08-07 16:11:00,
2013-08-07 12:26:00,71.6,68.2,29.99,SSW,202,2.7,-999.0,89,-99.99,,,0.00,Acu-Link.com,2013-08-07 16:26:00,
2013-08-07 12:41:00,72.5,68.7,29.98,SSW,202,2.2,-999.0,88,-99.99,,,0.00,Acu-Link.com,2013-08-07 16:41:00,
2013-08-07 12:56:00,73.4,69.6,29.97,WSW,247,2.7,-999.0,88,-99.99,,,0.00,Acu-Link.com,2013-08-07 16:56:00,
2013-08-07 13:12:00,72.0,68.9,29.98,SW,225,0.0,-999.0,90,-99.99,,,0.00,Acu-Link.com,2013-08-07 17:12:00,
2013-08-07 13:27:00,72.3,69.2,29.97,SW,225,0.0,-999.0,90,-99.99,,,0.00,Acu-Link.com,2013-08-07 17:27:00,
2013-08-07 13:42:00,75.4,70.6,29.97,South,180,0.0,-999.0,85,-99.99,,,0.00,Acu-Link.com,2013-08-07 17:42:00,
2013-08-07 13:57:00,70.7,68.3,29.99,SSW,202,2.2,-999.0,92,-99.99,,,0.00,Acu-Link.com,2013-08-07 17:57:00,
2013-08-07 14:13:00,70.7,69.8,29.97,SSW,202,2.2,-999.0,97,-99.99,,,0.01,Acu-Link.com,2013-08-07 18:13:00,
2013-08-07 14:28:00,73.0,70.5,29.97,WSW,247,2.7,-999.0,92,-99.99,,,0.01,Acu-Link.com,2013-08-07 18:28:00,
2013-08-07 14:43:00,72.3,69.8,29.97,SW,225,2.2,-999.0,92,-99.99,,,0.01,Acu-Link.com,2013-08-07 18:43:00,
2013-08-07 14:59:00,73.0,70.5,29.96,SSW,202,2.2,-999.0,92,-99.99,,,0.01,Acu-Link.com,2013-08-07 18:59:00,
2013-08-07 15:14:00,74.1,71.3,29.94,West,270,2.7,-999.0,91,-99.99,,,0.01,Acu-Link.com,2013-08-07 19:14:00,
2013-08-07 15:29:00,74.3,70.5,29.93,SSW,202,2.7,-999.0,88,-99.99,,,0.01,Acu-Link.com,2013-08-07 19:29:00,
2013-08-07 15:44:00,74.8,71.0,29.94,SW,225,2.7,-999.0,88,-99.99,,,0.01,Acu-Link.com,2013-08-07 19:44:00,
2013-08-07 15:59:00,75.4,70.9,29.94,SW,225,2.7,-999.0,86,-99.99,,,0.01,Acu-Link.com,2013-08-07 19:59:00,
2013-08-07 16:14:00,74.8,70.7,29.94,South,180,2.7,-999.0,87,-99.99,,,0.01,Acu-Link.com,2013-08-07 20:14:00,
2013-08-07 16:30:00,73.9,70.1,29.95,SSW,202,2.7,-999.0,88,-99.99,,,0.01,Acu-Link.com,2013-08-07 20:30:00,
2013-08-07 16:45:00,73.6,69.8,29.95,SSW,202,2.7,-999.0,88,-99.99,,,0.01,Acu-Link.com,2013-08-07 20:45:00,
2013-08-07 17:00:00,71.8,69.7,29.95,SW,225,1.7,-999.0,93,-99.99,,,0.01,Acu-Link.com,2013-08-07 21:00:00,
2013-08-07 17:15:00,71.8,69.3,29.95,SW,225,3.2,-999.0,92,-99.99,,,0.02,Acu-Link.com,2013-08-07 21:15:00,
2013-08-07 17:31:00,71.4,68.6,29.94,SSW,202,3.7,-999.0,91,-99.99,,,0.02,Acu-Link.com,2013-08-07 21:31:00,
2013-08-07 17:46:00,72.0,69.2,29.94,WSW,247,3.2,-999.0,91,-99.99,,,0.02,Acu-Link.com,2013-08-07 21:46:00,
2013-08-07 18:01:00,72.3,69.2,29.94,SW,225,3.2,-999.0,90,-99.99,,,0.02,Acu-Link.com,2013-08-07 22:01:00,
2013-08-07 18:17:00,71.8,68.7,29.95,SW,225,2.7,-999.0,90,-99.99,,,0.02,Acu-Link.com,2013-08-07 22:17:00,
2013-08-07 18:32:00,71.1,68.7,29.95,West,270,0.0,-999.0,92,-99.99,,,0.02,Acu-Link.com,2013-08-07 22:32:00,
2013-08-07 18:47:00,70.5,68.1,29.95,SSW,202,2.2,-999.0,92,-99.99,,,0.02,Acu-Link.com,2013-08-07 22:47:00,
2013-08-07 19:02:00,70.2,68.1,29.96,SSW,202,0.0,-999.0,93,-99.99,,,0.02,Acu-Link.com,2013-08-07 23:02:00,
2013-08-07 19:33:00,69.4,67.3,29.96,SW,225,0.0,-999.0,93,-99.99,,,0.02,Acu-Link.com,2013-08-07 23:33:00,
2013-08-07 19:48:00,68.9,67.1,29.96,SW,225,0.0,-999.0,94,-99.99,,,0.02,Acu-Link.com,2013-08-07 23:48:00,
2013-08-07 20:03:00,68.4,66.6,29.97,South,180,0.0,-999.0,94,-99.99,,,0.02,Acu-Link.com,2013-08-08 00:03:00,
2013-08-07 20:19:00,68.2,66.7,29.97,SSW,202,0.0,-999.0,95,-99.99,,,0.02,Acu-Link.com,2013-08-08 00:19:00,
2013-08-07 20:34:00,67.8,66.3,29.97,SW,225,0.0,-999.0,95,-99.99,,,0.02,Acu-Link.com,2013-08-08 00:34:00,
2013-08-07 20:49:00,67.5,66.3,29.97,South,180,0.0,-999.0,96,-99.99,,,0.02,Acu-Link.com,2013-08-08 00:49:00,
2013-08-07 21:05:00,67.5,66.3,29.97,SW,225,0.0,-999.0,96,-99.99,,,0.02,Acu-Link.com,2013-08-08 01:05:00,
2013-08-07 21:20:00,67.3,66.1,29.98,SW,225,0.0,-999.0,96,-99.99,,,0.02,Acu-Link.com,2013-08-08 01:20:00,
2013-08-07 21:35:00,67.1,66.2,29.98,WSW,247,0.0,-999.0,97,-99.99,,,0.02,Acu-Link.com,2013-08-08 01:35:00,
2013-08-07 21:50:00,67.1,66.2,29.98,SSW,202,0.0,-999.0,97,-99.99,,,0.02,Acu-Link.com,2013-08-08 01:50:00,
2013-08-07 22:06:00,66.7,65.8,29.98,SSW,202,0.0,-999.0,97,-99.99,,,0.02,Acu-Link.com,2013-08-08 02:06:00,
2013-08-07 22:21:00,66.6,65.7,29.99,South,180,0.0,-999.0,97,-99.99,,,0.02,Acu-Link.com,2013-08-08 02:21:00,
2013-08-07 22:36:00,66.4,65.8,29.99,SW,225,0.0,-999.0,98,-99.99,,,0.02,Acu-Link.com,2013-08-08 02:36:00,
2013-08-07 22:51:00,66.4,66.1,29.99,SSW,202,2.7,-999.0,99,-99.99,,,0.02,Acu-Link.com,2013-08-08 02:51:00,
2013-08-07 23:07:00,66.6,66.3,29.99,SW,225,2.2,-999.0,99,-99.99,,,0.02,Acu-Link.com,2013-08-08 03:07:00,
2013-08-07 23:22:00,66.7,66.1,29.99,SSW,202,1.7,-999.0,98,-99.99,,,0.02,Acu-Link.com,2013-08-08 03:22:00,
2013-08-07 23:37:00,66.7,66.1,29.99,WSW,247,1.7,-999.0,98,-99.99,,,0.02,Acu-Link.com,2013-08-08 03:37:00,
2013-08-07 23:52:00,66.7,66.1,29.98,WSW,247,3.2,-999.0,98,-99.99,,,0.02,Acu-Link.com,2013-08-08 03:52:00,